sensor_id;sensor_type;location;lat;lon;timestamp;P1;durP1;ratioP1;P2;durP2;ratioP2
57858;SDS011;49153;45.568;11.894;2022-11-06T00:00:03;19.38;;;12.35;;
57858;SDS011;49153;45.568;11.894;2022-11-06T00:02:30;20.67;;;11.77;;
57858;SDS011;49153;45.568;11.894;2022-11-06T00:04:56;21.75;;;12.82;;
57858;SDS011;49153;45.568;11.894;2022-11-06T00:07:45;21.95;;;12.18;;
57858;SDS011;49153;45.568;11.894;2022-11-06T00:10:12;21.48;;;13.27;;
57858;SDS011;49153;45.568;11.894;2022-11-06T00:12:40;22.55;;;13.75;;
57858;SDS011;49153;45.568;11.894;2022-11-06T00:15:06;20.38;;;13.00;;
57858;SDS011;49153;45.568;11.894;2022-11-06T00:17:33;18.70;;;12.13;;
57858;SDS011;49153;45.568;11.894;2022-11-06T00:19:58;18.80;;;11.77;;
57858;SDS011;49153;45.568;11.894;2022-11-06T00:22:23;21.48;;;12.68;;
57858;SDS011;49153;45.568;11.894;2022-11-06T00:24:49;21.75;;;12.98;;
57858;SDS011;49153;45.568;11.894;2022-11-06T00:27:14;20.63;;;12.13;;
57858;SDS011;49153;45.568;11.894;2022-11-06T00:29:40;19.73;;;12.38;;
57858;SDS011;49153;45.568;11.894;2022-11-06T00:32:05;21.10;;;11.98;;
57858;SDS011;49153;45.568;11.894;2022-11-06T00:34:31;19.77;;;11.90;;
57858;SDS011;49153;45.568;11.894;2022-11-06T00:36:57;19.15;;;12.23;;
57858;SDS011;49153;45.568;11.894;2022-11-06T00:39:28;18.48;;;12.35;;
57858;SDS011;49153;45.568;11.894;2022-11-06T00:41:54;18.73;;;11.10;;
57858;SDS011;49153;45.568;11.894;2022-11-06T00:44:20;18.92;;;11.60;;
57858;SDS011;49153;45.568;11.894;2022-11-06T00:46:45;18.90;;;12.25;;
57858;SDS011;49153;45.568;11.894;2022-11-06T00:49:11;19.83;;;12.25;;
57858;SDS011;49153;45.568;11.894;2022-11-06T00:51:36;18.17;;;11.90;;
57858;SDS011;49153;45.568;11.894;2022-11-06T00:54:06;18.05;;;11.57;;
57858;SDS011;49153;45.568;11.894;2022-11-06T00:56:34;16.88;;;11.30;;
57858;SDS011;49153;45.568;11.894;2022-11-06T00:59:00;19.95;;;12.10;;
57858;SDS011;49153;45.568;11.894;2022-11-06T01:01:27;17.98;;;11.30;;
57858;SDS011;49153;45.568;11.894;2022-11-06T01:04:07;19.00;;;11.85;;
57858;SDS011;49153;45.568;11.894;2022-11-06T01:06:37;19.35;;;12.07;;
57858;SDS011;49153;45.568;11.894;2022-11-06T01:09:05;22.17;;;12.70;;
57858;SDS011;49153;45.568;11.894;2022-11-06T01:11:32;18.90;;;12.18;;
57858;SDS011;49153;45.568;11.894;2022-11-06T01:14:00;20.52;;;12.63;;
57858;SDS011;49153;45.568;11.894;2022-11-06T01:16:26;17.92;;;10.95;;
57858;SDS011;49153;45.568;11.894;2022-11-06T01:18:53;18.63;;;11.90;;
57858;SDS011;49153;45.568;11.894;2022-11-06T01:21:21;18.38;;;11.35;;
57858;SDS011;49153;45.568;11.894;2022-11-06T01:23:52;19.65;;;11.65;;
57858;SDS011;49153;45.568;11.894;2022-11-06T01:26:23;19.80;;;11.88;;
57858;SDS011;49153;45.568;11.894;2022-11-06T01:28:49;19.60;;;11.80;;
57858;SDS011;49153;45.568;11.894;2022-11-06T01:31:16;19.90;;;11.07;;
57858;SDS011;49153;45.568;11.894;2022-11-06T01:33:44;17.75;;;11.35;;
57858;SDS011;49153;45.568;11.894;2022-11-06T01:36:10;16.45;;;11.13;;
57858;SDS011;49153;45.568;11.894;2022-11-06T01:38:40;17.63;;;11.43;;
57858;SDS011;49153;45.568;11.894;2022-11-06T01:41:06;17.80;;;11.25;;
57858;SDS011;49153;45.568;11.894;2022-11-06T01:46:18;19.48;;;11.38;;
57858;SDS011;49153;45.568;11.894;2022-11-06T01:48:46;17.17;;;11.10;;
57858;SDS011;49153;45.568;11.894;2022-11-06T01:51:25;18.10;;;10.80;;
57858;SDS011;49153;45.568;11.894;2022-11-06T01:53:52;16.38;;;10.95;;
57858;SDS011;49153;45.568;11.894;2022-11-06T01:56:18;18.15;;;10.82;;
57858;SDS011;49153;45.568;11.894;2022-11-06T01:58:45;15.43;;;10.77;;
57858;SDS011;49153;45.568;11.894;2022-11-06T02:01:13;15.93;;;10.77;;
57858;SDS011;49153;45.568;11.894;2022-11-06T02:03:39;16.52;;;10.15;;
57858;SDS011;49153;45.568;11.894;2022-11-06T02:06:19;18.43;;;10.47;;
57858;SDS011;49153;45.568;11.894;2022-11-06T02:08:44;16.77;;;10.82;;
57858;SDS011;49153;45.568;11.894;2022-11-06T02:11:10;16.92;;;10.23;;
57858;SDS011;49153;45.568;11.894;2022-11-06T02:16:29;19.70;;;10.65;;
57858;SDS011;49153;45.568;11.894;2022-11-06T02:27:57;16.65;;;10.02;;
57858;SDS011;49153;45.568;11.894;2022-11-06T02:30:27;16.05;;;9.75;;
57858;SDS011;49153;45.568;11.894;2022-11-06T02:33:05;16.08;;;9.52;;
57858;SDS011;49153;45.568;11.894;2022-11-06T02:38:11;14.80;;;9.43;;
57858;SDS011;49153;45.568;11.894;2022-11-06T02:40:42;17.13;;;10.40;;
57858;SDS011;49153;45.568;11.894;2022-11-06T02:43:13;15.10;;;9.25;;
57858;SDS011;49153;45.568;11.894;2022-11-06T02:45:47;16.10;;;9.63;;
57858;SDS011;49153;45.568;11.894;2022-11-06T02:48:19;18.42;;;9.13;;
57858;SDS011;49153;45.568;11.894;2022-11-06T02:50:48;15.03;;;9.40;;
57858;SDS011;49153;45.568;11.894;2022-11-06T02:53:17;12.48;;;8.75;;
57858;SDS011;49153;45.568;11.894;2022-11-06T02:55:47;13.23;;;8.65;;
57858;SDS011;49153;45.568;11.894;2022-11-06T02:58:16;14.30;;;8.60;;
57858;SDS011;49153;45.568;11.894;2022-11-06T03:00:53;12.85;;;8.50;;
57858;SDS011;49153;45.568;11.894;2022-11-06T03:03:28;14.73;;;8.35;;
57858;SDS011;49153;45.568;11.894;2022-11-06T03:08:41;10.25;;;7.28;;
57858;SDS011;49153;45.568;11.894;2022-11-06T03:11:15;11.60;;;7.63;;
57858;SDS011;49153;45.568;11.894;2022-11-06T03:13:51;11.60;;;7.35;;
57858;SDS011;49153;45.568;11.894;2022-11-06T03:16:25;11.65;;;6.82;;
57858;SDS011;49153;45.568;11.894;2022-11-06T03:18:59;9.68;;;6.03;;
57858;SDS011;49153;45.568;11.894;2022-11-06T03:21:47;10.80;;;7.10;;
57858;SDS011;49153;45.568;11.894;2022-11-06T03:24:34;10.93;;;6.82;;
57858;SDS011;49153;45.568;11.894;2022-11-06T03:27:10;11.73;;;6.85;;
57858;SDS011;49153;45.568;11.894;2022-11-06T03:32:43;12.77;;;6.90;;
57858;SDS011;49153;45.568;11.894;2022-11-06T03:37:42;9.43;;;7.10;;
57858;SDS011;49153;45.568;11.894;2022-11-06T03:40:15;11.15;;;7.00;;
57858;SDS011;49153;45.568;11.894;2022-11-06T03:42:45;10.60;;;7.05;;
57858;SDS011;49153;45.568;11.894;2022-11-06T03:45:16;11.33;;;7.03;;
57858;SDS011;49153;45.568;11.894;2022-11-06T03:47:47;10.00;;;6.68;;
57858;SDS011;49153;45.568;11.894;2022-11-06T03:56:02;12.20;;;7.50;;
57858;SDS011;49153;45.568;11.894;2022-11-06T03:58:32;9.20;;;6.90;;
57858;SDS011;49153;45.568;11.894;2022-11-06T04:01:03;12.17;;;7.30;;
57858;SDS011;49153;45.568;11.894;2022-11-06T04:06:01;9.38;;;6.75;;
57858;SDS011;49153;45.568;11.894;2022-11-06T04:08:34;10.45;;;6.70;;
57858;SDS011;49153;45.568;11.894;2022-11-06T04:11:21;10.18;;;6.55;;
57858;SDS011;49153;45.568;11.894;2022-11-06T04:14:08;8.68;;;6.22;;
57858;SDS011;49153;45.568;11.894;2022-11-06T04:16:37;10.10;;;6.22;;
57858;SDS011;49153;45.568;11.894;2022-11-06T04:19:05;11.73;;;7.20;;
57858;SDS011;49153;45.568;11.894;2022-11-06T04:30:07;9.43;;;6.72;;
57858;SDS011;49153;45.568;11.894;2022-11-06T04:38:18;10.27;;;6.53;;
57858;SDS011;49153;45.568;11.894;2022-11-06T04:46:17;11.00;;;5.88;;
57858;SDS011;49153;45.568;11.894;2022-11-06T04:48:46;10.52;;;5.63;;
57858;SDS011;49153;45.568;11.894;2022-11-06T04:51:13;8.93;;;5.78;;
57858;SDS011;49153;45.568;11.894;2022-11-06T04:53:42;7.97;;;5.63;;
57858;SDS011;49153;45.568;11.894;2022-11-06T04:56:10;7.50;;;5.30;;
57858;SDS011;49153;45.568;11.894;2022-11-06T04:58:37;7.63;;;5.63;;
57858;SDS011;49153;45.568;11.894;2022-11-06T05:01:02;9.85;;;5.57;;
57858;SDS011;49153;45.568;11.894;2022-11-06T05:03:28;9.50;;;5.70;;
57858;SDS011;49153;45.568;11.894;2022-11-06T05:05:53;11.05;;;6.57;;
57858;SDS011;49153;45.568;11.894;2022-11-06T05:08:19;10.55;;;6.30;;
57858;SDS011;49153;45.568;11.894;2022-11-06T05:10:45;10.82;;;6.38;;
57858;SDS011;49153;45.568;11.894;2022-11-06T05:13:11;9.13;;;6.15;;
57858;SDS011;49153;45.568;11.894;2022-11-06T05:15:37;12.98;;;6.07;;
57858;SDS011;49153;45.568;11.894;2022-11-06T05:18:03;9.75;;;5.85;;
57858;SDS011;49153;45.568;11.894;2022-11-06T05:20:29;10.60;;;5.80;;
57858;SDS011;49153;45.568;11.894;2022-11-06T05:22:55;11.95;;;5.85;;
57858;SDS011;49153;45.568;11.894;2022-11-06T05:25:35;10.70;;;5.95;;
57858;SDS011;49153;45.568;11.894;2022-11-06T05:28:02;15.07;;;6.03;;
57858;SDS011;49153;45.568;11.894;2022-11-06T05:30:32;10.98;;;5.95;;
57858;SDS011;49153;45.568;11.894;2022-11-06T05:33:01;9.85;;;4.88;;
57858;SDS011;49153;45.568;11.894;2022-11-06T05:35:26;8.68;;;5.05;;
57858;SDS011;49153;45.568;11.894;2022-11-06T05:37:59;9.02;;;4.93;;
57858;SDS011;49153;45.568;11.894;2022-11-06T05:40:26;7.63;;;4.78;;
57858;SDS011;49153;45.568;11.894;2022-11-06T05:42:51;6.68;;;4.45;;
57858;SDS011;49153;45.568;11.894;2022-11-06T05:45:16;6.97;;;4.50;;
57858;SDS011;49153;45.568;11.894;2022-11-06T05:47:42;6.85;;;4.35;;
57858;SDS011;49153;45.568;11.894;2022-11-06T05:50:08;7.13;;;4.63;;
57858;SDS011;49153;45.568;11.894;2022-11-06T05:52:34;8.48;;;5.07;;
57858;SDS011;49153;45.568;11.894;2022-11-06T05:55:00;8.60;;;5.40;;
57858;SDS011;49153;45.568;11.894;2022-11-06T05:57:26;8.45;;;5.07;;
57858;SDS011;49153;45.568;11.894;2022-11-06T05:59:51;11.07;;;5.18;;
57858;SDS011;49153;45.568;11.894;2022-11-06T06:02:16;10.27;;;4.90;;
57858;SDS011;49153;45.568;11.894;2022-11-06T06:04:42;10.48;;;5.10;;
57858;SDS011;49153;45.568;11.894;2022-11-06T06:07:07;8.55;;;4.85;;
57858;SDS011;49153;45.568;11.894;2022-11-06T06:09:32;8.00;;;4.82;;
57858;SDS011;49153;45.568;11.894;2022-11-06T06:11:58;7.68;;;4.72;;
57858;SDS011;49153;45.568;11.894;2022-11-06T06:14:23;11.07;;;5.03;;
57858;SDS011;49153;45.568;11.894;2022-11-06T06:16:48;7.50;;;4.70;;
57858;SDS011;49153;45.568;11.894;2022-11-06T06:19:14;7.93;;;4.63;;
57858;SDS011;49153;45.568;11.894;2022-11-06T06:21:39;8.07;;;4.40;;
57858;SDS011;49153;45.568;11.894;2022-11-06T06:24:05;5.80;;;4.22;;
57858;SDS011;49153;45.568;11.894;2022-11-06T06:26:31;6.45;;;4.50;;
57858;SDS011;49153;45.568;11.894;2022-11-06T06:28:56;7.32;;;4.50;;
57858;SDS011;49153;45.568;11.894;2022-11-06T06:31:22;7.45;;;4.13;;
57858;SDS011;49153;45.568;11.894;2022-11-06T06:33:47;6.72;;;3.80;;
57858;SDS011;49153;45.568;11.894;2022-11-06T06:36:13;6.43;;;3.92;;
57858;SDS011;49153;45.568;11.894;2022-11-06T06:38:38;6.78;;;3.90;;
57858;SDS011;49153;45.568;11.894;2022-11-06T06:41:04;5.75;;;3.88;;
57858;SDS011;49153;45.568;11.894;2022-11-06T06:43:32;6.40;;;3.97;;
57858;SDS011;49153;45.568;11.894;2022-11-06T06:45:58;6.18;;;3.80;;
57858;SDS011;49153;45.568;11.894;2022-11-06T06:48:25;6.13;;;3.47;;
57858;SDS011;49153;45.568;11.894;2022-11-06T06:50:51;5.88;;;4.00;;
57858;SDS011;49153;45.568;11.894;2022-11-06T06:53:16;6.75;;;3.83;;
57858;SDS011;49153;45.568;11.894;2022-11-06T06:55:42;9.73;;;4.05;;
57858;SDS011;49153;45.568;11.894;2022-11-06T06:58:07;6.07;;;3.70;;
57858;SDS011;49153;45.568;11.894;2022-11-06T07:00:32;5.78;;;3.58;;
57858;SDS011;49153;45.568;11.894;2022-11-06T07:02:58;12.63;;;3.83;;
57858;SDS011;49153;45.568;11.894;2022-11-06T07:05:25;4.93;;;3.80;;
57858;SDS011;49153;45.568;11.894;2022-11-06T07:07:50;6.75;;;3.60;;
57858;SDS011;49153;45.568;11.894;2022-11-06T07:10:16;6.30;;;3.40;;
57858;SDS011;49153;45.568;11.894;2022-11-06T07:12:41;5.30;;;3.53;;
57858;SDS011;49153;45.568;11.894;2022-11-06T07:15:07;6.25;;;3.42;;
57858;SDS011;49153;45.568;11.894;2022-11-06T07:17:33;7.22;;;2.85;;
57858;SDS011;49153;45.568;11.894;2022-11-06T07:19:59;4.25;;;2.67;;
57858;SDS011;49153;45.568;11.894;2022-11-06T07:22:27;4.40;;;2.33;;
57858;SDS011;49153;45.568;11.894;2022-11-06T07:24:53;7.13;;;2.50;;
57858;SDS011;49153;45.568;11.894;2022-11-06T07:27:18;4.03;;;2.30;;
57858;SDS011;49153;45.568;11.894;2022-11-06T07:29:43;6.07;;;2.58;;
57858;SDS011;49153;45.568;11.894;2022-11-06T07:32:09;6.55;;;2.47;;
57858;SDS011;49153;45.568;11.894;2022-11-06T07:34:34;3.40;;;2.10;;
57858;SDS011;49153;45.568;11.894;2022-11-06T07:37:03;3.95;;;2.63;;
57858;SDS011;49153;45.568;11.894;2022-11-06T07:39:29;4.40;;;2.67;;
57858;SDS011;49153;45.568;11.894;2022-11-06T07:41:55;4.20;;;2.55;;
57858;SDS011;49153;45.568;11.894;2022-11-06T07:44:20;4.53;;;2.20;;
57858;SDS011;49153;45.568;11.894;2022-11-06T07:46:45;4.20;;;2.60;;
57858;SDS011;49153;45.568;11.894;2022-11-06T07:49:11;5.75;;;2.83;;
57858;SDS011;49153;45.568;11.894;2022-11-06T07:51:36;3.58;;;2.30;;
57858;SDS011;49153;45.568;11.894;2022-11-06T07:54:02;4.80;;;2.33;;
57858;SDS011;49153;45.568;11.894;2022-11-06T07:56:27;4.03;;;2.38;;
57858;SDS011;49153;45.568;11.894;2022-11-06T07:58:52;3.20;;;2.25;;
57858;SDS011;49153;45.568;11.894;2022-11-06T08:01:18;2.92;;;2.10;;
57858;SDS011;49153;45.568;11.894;2022-11-06T08:03:43;3.55;;;2.20;;
57858;SDS011;49153;45.568;11.894;2022-11-06T08:06:09;4.05;;;1.90;;
57858;SDS011;49153;45.568;11.894;2022-11-06T08:08:35;2.22;;;1.80;;
57858;SDS011;49153;45.568;11.894;2022-11-06T08:11:03;3.55;;;1.70;;
57858;SDS011;49153;45.568;11.894;2022-11-06T08:13:30;3.72;;;2.00;;
57858;SDS011;49153;45.568;11.894;2022-11-06T08:15:58;2.55;;;1.73;;
57858;SDS011;49153;45.568;11.894;2022-11-06T08:18:27;4.45;;;2.05;;
57858;SDS011;49153;45.568;11.894;2022-11-06T08:20:52;4.68;;;1.92;;
57858;SDS011;49153;45.568;11.894;2022-11-06T08:23:18;3.45;;;1.60;;
57858;SDS011;49153;45.568;11.894;2022-11-06T08:25:44;2.17;;;1.60;;
57858;SDS011;49153;45.568;11.894;2022-11-06T08:28:09;4.05;;;1.85;;
57858;SDS011;49153;45.568;11.894;2022-11-06T08:30:35;2.47;;;1.60;;
57858;SDS011;49153;45.568;11.894;2022-11-06T08:33:01;2.33;;;1.60;;
57858;SDS011;49153;45.568;11.894;2022-11-06T08:35:28;4.00;;;1.60;;
57858;SDS011;49153;45.568;11.894;2022-11-06T08:37:54;2.97;;;1.40;;
57858;SDS011;49153;45.568;11.894;2022-11-06T08:40:20;2.58;;;1.55;;
57858;SDS011;49153;45.568;11.894;2022-11-06T08:42:45;2.55;;;1.30;;
57858;SDS011;49153;45.568;11.894;2022-11-06T08:45:11;1.98;;;1.40;;
57858;SDS011;49153;45.568;11.894;2022-11-06T08:47:36;2.85;;;1.30;;
57858;SDS011;49153;45.568;11.894;2022-11-06T08:50:02;1.85;;;1.20;;
57858;SDS011;49153;45.568;11.894;2022-11-06T08:52:27;1.38;;;1.20;;
57858;SDS011;49153;45.568;11.894;2022-11-06T08:54:53;2.70;;;1.48;;
57858;SDS011;49153;45.568;11.894;2022-11-06T08:57:18;1.50;;;1.08;;
57858;SDS011;49153;45.568;11.894;2022-11-06T08:59:43;2.95;;;1.33;;
57858;SDS011;49153;45.568;11.894;2022-11-06T09:02:12;2.65;;;1.13;;
57858;SDS011;49153;45.568;11.894;2022-11-06T09:04:39;1.33;;;1.10;;
57858;SDS011;49153;45.568;11.894;2022-11-06T09:07:04;0.90;;;0.80;;
57858;SDS011;49153;45.568;11.894;2022-11-06T09:09:30;2.90;;;1.10;;
57858;SDS011;49153;45.568;11.894;2022-11-06T09:11:58;1.35;;;0.90;;
57858;SDS011;49153;45.568;11.894;2022-11-06T09:14:25;2.40;;;0.95;;
57858;SDS011;49153;45.568;11.894;2022-11-06T09:16:51;1.88;;;0.80;;
57858;SDS011;49153;45.568;11.894;2022-11-06T09:19:17;0.93;;;0.80;;
57858;SDS011;49153;45.568;11.894;2022-11-06T09:21:42;1.40;;;1.00;;
57858;SDS011;49153;45.568;11.894;2022-11-06T09:24:08;2.95;;;1.45;;
57858;SDS011;49153;45.568;11.894;2022-11-06T09:26:33;1.38;;;0.90;;
57858;SDS011;49153;45.568;11.894;2022-11-06T09:28:59;1.40;;;0.90;;
57858;SDS011;49153;45.568;11.894;2022-11-06T09:31:24;1.80;;;0.82;;
57858;SDS011;49153;45.568;11.894;2022-11-06T09:33:49;1.40;;;1.00;;
57858;SDS011;49153;45.568;11.894;2022-11-06T09:36:15;1.30;;;1.00;;
57858;SDS011;49153;45.568;11.894;2022-11-06T09:38:41;1.50;;;1.10;;
57858;SDS011;49153;45.568;11.894;2022-11-06T09:41:11;1.50;;;0.80;;
57858;SDS011;49153;45.568;11.894;2022-11-06T09:44:05;1.45;;;0.93;;
57858;SDS011;49153;45.568;11.894;2022-11-06T09:46:53;1.88;;;0.90;;
57858;SDS011;49153;45.568;11.894;2022-11-06T09:49:26;1.63;;;0.95;;
57858;SDS011;49153;45.568;11.894;2022-11-06T09:52:05;3.35;;;0.80;;
57858;SDS011;49153;45.568;11.894;2022-11-06T09:58:10;1.30;;;0.90;;
57858;SDS011;49153;45.568;11.894;2022-11-06T10:00:33;1.20;;;0.80;;
57858;SDS011;49153;45.568;11.894;2022-11-06T10:03:01;2.55;;;0.70;;
57858;SDS011;49153;45.568;11.894;2022-11-06T10:07:58;0.85;;;0.70;;
57858;SDS011;49153;45.568;11.894;2022-11-06T10:10:35;1.92;;;0.90;;
57858;SDS011;49153;45.568;11.894;2022-11-06T10:13:14;1.17;;;0.70;;
57858;SDS011;49153;45.568;11.894;2022-11-06T10:15:53;1.83;;;0.77;;
57858;SDS011;49153;45.568;11.894;2022-11-06T10:21:10;1.00;;;0.68;;
57858;SDS011;49153;45.568;11.894;2022-11-06T10:23:46;2.03;;;0.75;;
57858;SDS011;49153;45.568;11.894;2022-11-06T10:26:16;1.58;;;0.80;;
57858;SDS011;49153;45.568;11.894;2022-11-06T10:28:50;1.50;;;0.95;;
57858;SDS011;49153;45.568;11.894;2022-11-06T10:34:27;1.02;;;0.82;;
57858;SDS011;49153;45.568;11.894;2022-11-06T10:37:03;1.40;;;0.90;;
57858;SDS011;49153;45.568;11.894;2022-11-06T10:39:34;2.75;;;0.88;;
57858;SDS011;49153;45.568;11.894;2022-11-06T10:47:04;1.38;;;0.80;;
57858;SDS011;49153;45.568;11.894;2022-11-06T10:49:45;1.40;;;0.80;;
57858;SDS011;49153;45.568;11.894;2022-11-06T10:52:25;1.02;;;0.90;;
57858;SDS011;49153;45.568;11.894;2022-11-06T11:00:47;1.40;;;1.00;;
57858;SDS011;49153;45.568;11.894;2022-11-06T11:05:48;2.60;;;1.20;;
57858;SDS011;49153;45.568;11.894;2022-11-06T11:11:27;3.10;;;1.75;;
57858;SDS011;49153;45.568;11.894;2022-11-06T11:16:21;1.67;;;1.30;;
57858;SDS011;49153;45.568;11.894;2022-11-06T11:18:49;1.58;;;1.20;;
57858;SDS011;49153;45.568;11.894;2022-11-06T11:21:20;2.88;;;1.30;;
57858;SDS011;49153;45.568;11.894;2022-11-06T11:24:03;1.38;;;1.08;;
57858;SDS011;49153;45.568;11.894;2022-11-06T11:26:29;2.45;;;1.20;;
57858;SDS011;49153;45.568;11.894;2022-11-06T11:28:58;1.75;;;1.30;;
57858;SDS011;49153;45.568;11.894;2022-11-06T11:31:33;2.42;;;1.27;;
57858;SDS011;49153;45.568;11.894;2022-11-06T11:34:00;1.90;;;1.10;;
57858;SDS011;49153;45.568;11.894;2022-11-06T11:39:26;3.28;;;1.38;;
57858;SDS011;49153;45.568;11.894;2022-11-06T11:42:14;3.05;;;1.70;;
57858;SDS011;49153;45.568;11.894;2022-11-06T11:44:40;2.13;;;1.33;;
57858;SDS011;49153;45.568;11.894;2022-11-06T11:47:06;1.95;;;1.40;;
57858;SDS011;49153;45.568;11.894;2022-11-06T11:49:45;4.07;;;1.58;;
57858;SDS011;49153;45.568;11.894;2022-11-06T11:52:11;2.42;;;1.55;;
57858;SDS011;49153;45.568;11.894;2022-11-06T11:54:40;2.97;;;1.38;;
57858;SDS011;49153;45.568;11.894;2022-11-06T11:57:20;2.47;;;1.50;;
57858;SDS011;49153;45.568;11.894;2022-11-06T11:59:51;2.70;;;1.40;;
57858;SDS011;49153;45.568;11.894;2022-11-06T12:02:33;2.90;;;1.70;;
57858;SDS011;49153;45.568;11.894;2022-11-06T12:05:10;3.38;;;1.88;;
57858;SDS011;49153;45.568;11.894;2022-11-06T12:07:42;2.45;;;1.52;;
57858;SDS011;49153;45.568;11.894;2022-11-06T12:13:04;2.88;;;1.55;;
57858;SDS011;49153;45.568;11.894;2022-11-06T12:18:34;3.33;;;1.97;;
57858;SDS011;49153;45.568;11.894;2022-11-06T12:26:23;3.05;;;1.60;;
57858;SDS011;49153;45.568;11.894;2022-11-06T12:28:59;2.63;;;1.60;;
57858;SDS011;49153;45.568;11.894;2022-11-06T12:31:54;2.83;;;1.70;;
57858;SDS011;49153;45.568;11.894;2022-11-06T12:34:36;2.60;;;1.65;;
57858;SDS011;49153;45.568;11.894;2022-11-06T12:37:25;2.17;;;1.25;;
57858;SDS011;49153;45.568;11.894;2022-11-06T13:14:00;5.70;;;2.85;;
57858;SDS011;49153;45.568;11.894;2022-11-06T13:18:30;4.57;;;2.20;;
57858;SDS011;49153;45.568;11.894;2022-11-06T13:23:50;6.15;;;2.65;;
57858;SDS011;49153;45.568;11.894;2022-11-06T13:28:56;4.28;;;2.38;;
57858;SDS011;49153;45.568;11.894;2022-11-06T13:31:34;3.95;;;2.38;;
57858;SDS011;49153;45.568;11.894;2022-11-06T13:34:05;3.47;;;2.35;;
57858;SDS011;49153;45.568;11.894;2022-11-06T13:36:35;3.85;;;2.30;;
57858;SDS011;49153;45.568;11.894;2022-11-06T13:39:03;4.78;;;2.53;;
57858;SDS011;49153;45.568;11.894;2022-11-06T13:41:39;5.22;;;2.20;;
57858;SDS011;49153;45.568;11.894;2022-11-06T13:44:05;3.47;;;1.98;;
57858;SDS011;49153;45.568;11.894;2022-11-06T13:51:40;3.38;;;2.00;;
57858;SDS011;49153;45.568;11.894;2022-11-06T13:54:22;2.80;;;2.00;;
57858;SDS011;49153;45.568;11.894;2022-11-06T14:08:07;2.47;;;1.45;;
57858;SDS011;49153;45.568;11.894;2022-11-06T14:10:47;4.05;;;1.80;;
57858;SDS011;49153;45.568;11.894;2022-11-06T14:13:17;3.00;;;1.92;;
57858;SDS011;49153;45.568;11.894;2022-11-06T14:15:48;2.85;;;2.17;;
57858;SDS011;49153;45.568;11.894;2022-11-06T14:18:31;2.83;;;1.60;;
57858;SDS011;49153;45.568;11.894;2022-11-06T14:23:53;2.22;;;1.60;;
57858;SDS011;49153;45.568;11.894;2022-11-06T14:26:38;3.05;;;1.98;;
57858;SDS011;49153;45.568;11.894;2022-11-06T14:34:48;3.25;;;2.30;;
57858;SDS011;49153;45.568;11.894;2022-11-06T14:44:54;3.53;;;2.03;;
57858;SDS011;49153;45.568;11.894;2022-11-06T14:47:27;3.58;;;2.15;;
57858;SDS011;49153;45.568;11.894;2022-11-06T14:49:58;4.38;;;1.92;;
57858;SDS011;49153;45.568;11.894;2022-11-06T14:52:29;2.63;;;1.90;;
57858;SDS011;49153;45.568;11.894;2022-11-06T14:55:06;3.13;;;1.98;;
57858;SDS011;49153;45.568;11.894;2022-11-06T15:00:15;3.28;;;1.70;;
57858;SDS011;49153;45.568;11.894;2022-11-06T15:02:59;5.20;;;2.20;;
57858;SDS011;49153;45.568;11.894;2022-11-06T15:05:27;3.22;;;1.90;;
57858;SDS011;49153;45.568;11.894;2022-11-06T15:07:55;2.55;;;1.90;;
57858;SDS011;49153;45.568;11.894;2022-11-06T15:15:43;3.70;;;2.15;;
57858;SDS011;49153;45.568;11.894;2022-11-06T15:18:13;3.05;;;1.95;;
57858;SDS011;49153;45.568;11.894;2022-11-06T15:20:44;3.45;;;1.92;;
57858;SDS011;49153;45.568;11.894;2022-11-06T15:23:33;3.60;;;1.98;;
57858;SDS011;49153;45.568;11.894;2022-11-06T15:28:41;3.58;;;1.75;;
57858;SDS011;49153;45.568;11.894;2022-11-06T15:31:11;2.97;;;1.90;;
57858;SDS011;49153;45.568;11.894;2022-11-06T15:33:46;2.95;;;1.75;;
57858;SDS011;49153;45.568;11.894;2022-11-06T15:36:17;3.22;;;2.28;;
57858;SDS011;49153;45.568;11.894;2022-11-06T15:38:44;4.70;;;2.67;;
57858;SDS011;49153;45.568;11.894;2022-11-06T15:41:19;4.95;;;2.10;;
57858;SDS011;49153;45.568;11.894;2022-11-06T15:43:48;4.40;;;2.33;;
57858;SDS011;49153;45.568;11.894;2022-11-06T15:46:16;8.50;;;2.70;;
57858;SDS011;49153;45.568;11.894;2022-11-06T15:49:04;4.10;;;2.00;;
57858;SDS011;49153;45.568;11.894;2022-11-06T15:51:51;5.85;;;2.40;;
57858;SDS011;49153;45.568;11.894;2022-11-06T15:56:58;5.63;;;2.38;;
57858;SDS011;49153;45.568;11.894;2022-11-06T15:59:26;5.57;;;2.10;;
57858;SDS011;49153;45.568;11.894;2022-11-06T16:01:52;4.75;;;2.40;;
57858;SDS011;49153;45.568;11.894;2022-11-06T16:04:19;3.75;;;2.13;;
57858;SDS011;49153;45.568;11.894;2022-11-06T16:06:47;4.75;;;2.38;;
57858;SDS011;49153;45.568;11.894;2022-11-06T16:09:15;4.53;;;2.55;;
57858;SDS011;49153;45.568;11.894;2022-11-06T16:11:49;5.75;;;2.83;;
57858;SDS011;49153;45.568;11.894;2022-11-06T16:14:18;4.43;;;2.42;;
57858;SDS011;49153;45.568;11.894;2022-11-06T16:21:59;6.63;;;3.42;;
57858;SDS011;49153;45.568;11.894;2022-11-06T16:24:31;8.18;;;3.88;;
57858;SDS011;49153;45.568;11.894;2022-11-06T16:27:04;9.55;;;4.60;;
57858;SDS011;49153;45.568;11.894;2022-11-06T16:29:30;15.18;;;6.93;;
57858;SDS011;49153;45.568;11.894;2022-11-06T16:31:57;14.82;;;6.82;;
57858;SDS011;49153;45.568;11.894;2022-11-06T16:44:23;15.13;;;6.93;;
57858;SDS011;49153;45.568;11.894;2022-11-06T16:49:44;14.77;;;7.25;;
57858;SDS011;49153;45.568;11.894;2022-11-06T16:55:19;12.68;;;7.65;;
57858;SDS011;49153;45.568;11.894;2022-11-06T16:57:49;14.55;;;7.75;;
57858;SDS011;49153;45.568;11.894;2022-11-06T17:00:27;11.77;;;7.05;;
57858;SDS011;49153;45.568;11.894;2022-11-06T17:05:26;13.37;;;8.47;;
57858;SDS011;49153;45.568;11.894;2022-11-06T17:10:48;13.05;;;7.50;;
57858;SDS011;49153;45.568;11.894;2022-11-06T17:13:19;11.65;;;7.20;;
57858;SDS011;49153;45.568;11.894;2022-11-06T17:15:53;12.80;;;7.32;;
57858;SDS011;49153;45.568;11.894;2022-11-06T17:18:21;11.93;;;7.43;;
57858;SDS011;49153;45.568;11.894;2022-11-06T17:20:50;12.98;;;7.78;;
57858;SDS011;49153;45.568;11.894;2022-11-06T17:23:17;13.65;;;7.80;;
57858;SDS011;49153;45.568;11.894;2022-11-06T17:25:43;12.75;;;7.90;;
57858;SDS011;49153;45.568;11.894;2022-11-06T17:28:09;12.70;;;7.70;;
57858;SDS011;49153;45.568;11.894;2022-11-06T17:30:35;11.52;;;7.47;;
57858;SDS011;49153;45.568;11.894;2022-11-06T17:33:01;12.38;;;7.55;;
57858;SDS011;49153;45.568;11.894;2022-11-06T17:35:26;12.40;;;7.75;;
57858;SDS011;49153;45.568;11.894;2022-11-06T17:37:52;11.88;;;7.88;;
57858;SDS011;49153;45.568;11.894;2022-11-06T17:40:18;14.77;;;8.55;;
57858;SDS011;49153;45.568;11.894;2022-11-06T17:42:43;12.70;;;7.72;;
57858;SDS011;49153;45.568;11.894;2022-11-06T17:45:09;15.65;;;8.85;;
57858;SDS011;49153;45.568;11.894;2022-11-06T17:47:34;14.93;;;9.38;;
57858;SDS011;49153;45.568;11.894;2022-11-06T17:50:00;14.30;;;8.32;;
57858;SDS011;49153;45.568;11.894;2022-11-06T17:52:25;16.25;;;8.77;;
57858;SDS011;49153;45.568;11.894;2022-11-06T17:54:51;14.32;;;9.20;;
57858;SDS011;49153;45.568;11.894;2022-11-06T17:57:16;15.93;;;9.30;;
57858;SDS011;49153;45.568;11.894;2022-11-06T17:59:42;17.38;;;9.63;;
57858;SDS011;49153;45.568;11.894;2022-11-06T18:02:10;19.10;;;10.38;;
57858;SDS011;49153;45.568;11.894;2022-11-06T18:04:37;15.32;;;9.80;;
57858;SDS011;49153;45.568;11.894;2022-11-06T18:07:02;15.88;;;9.88;;
57858;SDS011;49153;45.568;11.894;2022-11-06T18:09:28;16.88;;;10.18;;
57858;SDS011;49153;45.568;11.894;2022-11-06T18:11:53;17.05;;;9.85;;